createdAt,value
2022-09-12T00:01:19.841Z,69.72
2022-09-12T00:03:47.922Z,70.10
2022-09-12T00:06:22.809Z,71.74
2022-09-12T00:09:03.820Z,73.31
2022-09-12T00:11:31.157Z,69.78
2022-09-12T00:14:00.443Z,69.60
2022-09-12T00:16:29.945Z,73.94
2022-09-12T00:18:57.689Z,70.99
2022-09-12T00:21:25.360Z,72.38
2022-09-12T00:23:52.850Z,71.97
2022-09-12T00:26:22.117Z,69.60
2022-09-12T00:28:50.548Z,74.20
2022-09-12T00:31:21.548Z,72.87
2022-09-12T00:33:48.914Z,72.23
2022-09-12T00:36:21.232Z,71.35
2022-09-12T00:38:49.813Z,75.63
2022-09-12T00:41:20.661Z,77.41
2022-09-12T00:43:50.841Z,76.14
2022-09-12T00:46:36.742Z,72.28
2022-09-12T00:49:12.984Z,76.44
2022-09-12T00:51:45.059Z,77.55
2022-09-12T00:54:15.301Z,77.74
2022-09-12T00:56:44.136Z,77.53
2022-09-12T00:59:18.967Z,74.51
2022-09-12T01:01:48.982Z,72.74
2022-09-12T01:04:18.526Z,74.10
2022-09-12T01:06:46.523Z,74.38
2022-09-12T01:09:18.420Z,74.72
2022-09-12T01:11:47.038Z,74.29
2022-09-12T01:14:16.110Z,76.94
2022-09-12T01:16:45.208Z,77.33
2022-09-12T01:19:31.947Z,73.09
2022-09-12T01:22:28.737Z,70.02
2022-09-12T01:25:24.406Z,69.48
2022-09-12T01:28:22.722Z,70.76
2022-09-12T01:31:11.173Z,72.41
2022-09-12T01:33:47.685Z,72.04
2022-09-12T01:36:41.351Z,70.13
2022-09-12T01:39:16.494Z,71.75
2022-09-12T01:41:53.924Z,73.85
2022-09-12T01:45:03.400Z,71.98
2022-09-12T01:47:38.818Z,73.59
2022-09-12T01:50:10.764Z,73.39
2022-09-12T01:52:44.184Z,72.92
2022-09-12T01:55:17.807Z,73.93
2022-09-12T01:57:50.336Z,72.91
2022-09-12T02:00:18.096Z,72.86
2022-09-12T02:02:51.946Z,73.40
2022-09-12T02:05:39.299Z,74.41
2022-09-12T02:08:09.551Z,72.81
2022-09-12T02:10:44.163Z,74.38
2022-09-12T02:13:38.677Z,73.19
2022-09-12T02:16:10.703Z,73.75
2022-09-12T02:18:41.505Z,74.08
2022-09-12T02:21:08.981Z,74.84
2022-09-12T02:23:39.522Z,74.44
2022-09-12T02:26:13.349Z,73.65
2022-09-12T02:28:42.518Z,73.38
2022-09-12T02:31:20.967Z,73.33
2022-09-12T02:34:02.001Z,76.39
2022-09-12T02:36:40.883Z,76.67
2022-09-12T02:39:08.457Z,74.25
2022-09-12T02:41:36.171Z,73.52
2022-09-12T02:44:04.171Z,74.46
2022-09-12T02:47:05.207Z,75.82
2022-09-12T02:49:32.978Z,76.48
2022-09-12T02:52:01.473Z,74.45
2022-09-12T02:54:29.591Z,77.95
2022-09-12T02:56:57.154Z,80.65
2022-09-12T02:59:25.386Z,82.31
2022-09-12T03:02:11.080Z,81.15
2022-09-12T03:05:08.323Z,82.14
2022-09-12T03:07:48.272Z,75.97
2022-09-12T03:10:23.041Z,76.12
2022-09-12T03:13:09.289Z,72.17
2022-09-12T03:15:55.538Z,73.62
2022-09-12T03:18:34.457Z,73.25
2022-09-12T03:21:15.115Z,73.75
2022-09-12T03:24:04.542Z,72.23
2022-09-12T03:26:54.895Z,73.19
2022-09-12T03:29:23.113Z,74.21
2022-09-12T03:31:53.044Z,72.82
2022-09-12T03:34:21.484Z,74.64
2022-09-12T03:36:49.783Z,75.03
2022-09-12T03:39:18.052Z,74.83
2022-09-12T03:41:45.438Z,74.66
2022-09-12T03:44:12.783Z,74.27
2022-09-12T03:46:40.362Z,72.28
2022-09-12T03:49:07.671Z,73.63
2022-09-12T03:51:35.181Z,72.33
2022-09-12T03:54:03.056Z,73.95
2022-09-12T03:56:30.474Z,74.51
2022-09-12T03:58:57.915Z,71.64
2022-09-12T04:01:25.526Z,72.38
2022-09-12T04:03:53.148Z,71.14
2022-09-12T04:06:22.413Z,70.43
2022-09-12T04:08:53.958Z,71.43
2022-09-12T04:11:22.256Z,70.55
2022-09-12T04:13:49.894Z,71.30
2022-09-12T04:16:18.671Z,72.36
2022-09-12T04:18:46.892Z,71.70
2022-09-12T04:21:19.287Z,71.67
2022-09-12T04:23:46.871Z,71.30
2022-09-12T04:26:14.736Z,71.29
2022-09-12T04:28:42.245Z,69.79
2022-09-12T04:31:15.539Z,70.68
2022-09-12T04:33:42.930Z,71.05
2022-09-12T04:36:14.620Z,70.38
2022-09-12T04:38:43.458Z,71.08
2022-09-12T04:41:16.491Z,71.05
2022-09-12T04:43:46.549Z,71.75
2022-09-12T04:46:16.927Z,70.63
2022-09-12T04:48:44.290Z,70.44
2022-09-12T04:51:23.111Z,71.65
2022-09-12T04:53:53.077Z,71.07
2022-09-12T04:56:21.051Z,70.97
2022-09-12T04:58:48.831Z,70.50
2022-09-12T05:01:18.639Z,69.73
2022-09-12T05:03:47.140Z,70.19
2022-09-12T05:06:17.495Z,69.27
2022-09-12T05:08:45.506Z,69.18
2022-09-12T05:11:22.785Z,70.32
2022-09-12T05:13:53.049Z,68.78
2022-09-12T05:16:21.081Z,70.50
2022-09-12T05:18:50.208Z,69.19
2022-09-12T05:21:21.169Z,68.62
2022-09-12T05:23:51.435Z,66.54
2022-09-12T05:26:20.565Z,67.35
2022-09-12T05:28:48.663Z,65.40
2022-09-12T05:31:28.005Z,66.15
2022-09-12T05:33:56.075Z,64.71
2022-09-12T05:36:29.233Z,64.43
2022-09-12T05:38:57.503Z,68.63
2022-09-12T05:41:27.463Z,67.20
2022-09-12T05:43:59.450Z,67.31
2022-09-12T05:46:28.965Z,65.33
2022-09-12T05:48:57.258Z,63.92
2022-09-12T05:51:26.732Z,64.79
2022-09-12T05:53:59.003Z,63.16
2022-09-12T05:56:28.504Z,60.49
2022-09-12T05:59:03.782Z,63.43
2022-09-12T06:01:35.592Z,63.10
2022-09-12T06:04:05.049Z,61.86
2022-09-12T06:06:36.543Z,63.45
2022-09-12T06:09:05.217Z,59.96
2022-09-12T06:11:34.264Z,60.49
2022-09-12T06:14:01.977Z,58.19
2022-09-12T06:16:31.404Z,60.31
2022-09-12T06:19:01.643Z,62.70
2022-09-12T06:21:31.257Z,62.08
2022-09-12T06:23:59.876Z,60.66
2022-09-12T06:26:29.244Z,61.33
2022-09-12T06:28:58.339Z,58.91
2022-09-12T06:31:29.215Z,61.57
2022-09-12T06:33:59.249Z,62.34
2022-09-12T06:36:29.497Z,61.65
2022-09-12T06:38:59.429Z,58.60
2022-09-12T06:41:27.461Z,62.45
2022-09-12T06:43:54.867Z,58.97
2022-09-12T06:46:22.260Z,59.82
2022-09-12T06:48:50.587Z,60.26
2022-09-12T06:51:20.082Z,61.47
2022-09-12T06:53:48.746Z,62.85
2022-09-12T06:56:19.238Z,59.06
2022-09-12T06:58:47.776Z,60.57
2022-09-12T07:01:17.138Z,61.45
2022-09-12T07:03:51.581Z,61.48
2022-09-12T07:06:20.564Z,60.91
2022-09-12T07:08:48.499Z,61.06
2022-09-12T07:11:16.957Z,58.59
2022-09-12T07:13:47.569Z,59.02
2022-09-12T07:16:19.752Z,60.09
2022-09-12T07:18:52.099Z,58.00
2022-09-12T07:21:20.206Z,57.20
2022-09-12T07:23:48.057Z,58.30
2022-09-12T07:26:16.734Z,60.68
2022-09-12T07:28:44.756Z,61.12
2022-09-12T07:31:16.971Z,61.79
2022-09-12T07:33:44.779Z,59.97
2022-09-12T07:36:14.458Z,58.43
2022-09-12T07:38:42.352Z,57.45
2022-09-12T07:41:20.899Z,57.98
2022-09-12T07:43:48.369Z,56.51
2022-09-12T07:46:16.717Z,57.78
2022-09-12T07:48:45.473Z,58.28
2022-09-12T07:51:13.054Z,57.31
2022-09-12T07:53:41.611Z,56.39
2022-09-12T07:56:13.312Z,55.74
2022-09-12T07:58:42.118Z,56.14
2022-09-12T08:01:15.186Z,56.07
2022-09-12T08:03:44.170Z,56.53
2022-09-12T08:06:17.260Z,56.70
2022-09-12T08:08:44.853Z,55.57
2022-09-12T08:11:14.163Z,53.72
2022-09-12T08:13:42.758Z,55.95
2022-09-12T08:16:18.744Z,55.55
2022-09-12T08:18:46.066Z,55.60
2022-09-12T08:21:16.272Z,54.09
2022-09-12T08:23:44.459Z,53.04
2022-09-12T08:26:12.439Z,52.65
2022-09-12T08:28:43.362Z,52.49
2022-09-12T08:31:12.462Z,54.18
2022-09-12T08:33:40.327Z,52.81
2022-09-12T08:36:08.077Z,53.71
2022-09-12T08:38:36.062Z,52.19
2022-09-12T08:41:11.766Z,55.25
2022-09-12T08:43:51.030Z,52.81
2022-09-12T08:46:43.018Z,53.26
2022-09-12T08:49:13.523Z,53.84
2022-09-12T08:51:41.833Z,51.13
2022-09-12T08:54:22.333Z,52.38
2022-09-12T08:56:49.990Z,51.41
2022-09-12T08:59:17.451Z,52.14
2022-09-12T09:01:45.605Z,51.66
2022-09-12T09:04:18.955Z,50.16
2022-09-12T09:06:52.074Z,49.95
2022-09-12T09:09:42.949Z,47.51
2022-09-12T09:12:34.824Z,49.52
2022-09-12T09:15:41.190Z,50.74
2022-09-12T09:18:16.960Z,49.60
2022-09-12T09:20:56.568Z,47.86
2022-09-12T09:23:27.435Z,46.45
2022-09-12T09:26:01.759Z,48.97
2022-09-12T09:28:52.132Z,47.50
2022-09-12T09:31:22.428Z,46.50
2022-09-12T09:33:52.117Z,46.19
2022-09-12T09:36:45.428Z,46.29
2022-09-12T09:39:28.610Z,47.61
2022-09-12T09:42:17.529Z,45.27
2022-09-12T09:44:48.256Z,47.46
2022-09-12T09:47:17.942Z,48.03
2022-09-12T09:49:45.757Z,45.38
2022-09-12T09:52:15.575Z,46.64
2022-09-12T09:54:58.048Z,47.00
2022-09-12T09:57:34.229Z,48.42
2022-09-12T10:00:27.568Z,45.90
2022-09-12T10:03:24.442Z,47.76
2022-09-12T10:05:59.009Z,47.61
2022-09-12T10:08:27.635Z,48.21
2022-09-12T10:11:22.826Z,50.06
2022-09-12T10:13:50.298Z,51.04
2022-09-12T10:16:52.699Z,49.72
2022-09-12T10:19:24.629Z,47.83
2022-09-12T10:21:53.402Z,47.00
2022-09-12T10:24:23.978Z,47.84
2022-09-12T10:26:56.926Z,49.01
2022-09-12T10:29:31.663Z,48.67
2022-09-12T10:32:02.148Z,48.99
2022-09-12T10:34:33.464Z,51.10
2022-09-12T10:37:06.693Z,49.27
2022-09-12T10:39:36.154Z,48.23
2022-09-12T10:42:04.752Z,48.10
2022-09-12T10:44:34.372Z,46.75
2022-09-12T10:47:21.797Z,47.72
2022-09-12T10:49:51.164Z,48.41
2022-09-12T10:52:25.396Z,49.92
2022-09-12T10:54:53.034Z,48.74
2022-09-12T10:57:21.150Z,46.97
2022-09-12T11:00:15.552Z,47.92
2022-09-12T11:02:49.459Z,48.78
2022-09-12T11:05:29.102Z,50.16
2022-09-12T11:08:14.304Z,48.93
2022-09-12T11:11:03.054Z,48.98
2022-09-12T11:13:56.918Z,49.26
2022-09-12T11:16:43.099Z,49.54
2022-09-12T11:19:27.428Z,50.76
2022-09-12T11:22:13.068Z,50.02
2022-09-12T11:25:08.671Z,49.63
2022-09-12T11:28:04.442Z,50.31
2022-09-12T11:30:40.181Z,52.16
2022-09-12T11:33:28.812Z,53.12
2022-09-12T11:35:57.862Z,49.17
2022-09-12T11:38:47.964Z,48.55
2022-09-12T11:41:21.060Z,49.07
2022-09-12T11:43:51.755Z,49.06
2022-09-12T11:46:36.819Z,50.11
2022-09-12T11:49:27.430Z,50.41
2022-09-12T11:52:20.107Z,50.18
2022-09-12T11:55:03.862Z,50.50
2022-09-12T11:57:41.737Z,51.13
2022-09-12T12:00:44.970Z,51.38
2022-09-12T12:03:23.663Z,51.48
2022-09-12T12:06:21.335Z,51.68
2022-09-12T12:08:50.466Z,52.16
2022-09-12T12:11:35.942Z,50.90
2022-09-12T12:14:03.907Z,50.44
2022-09-12T12:16:37.214Z,49.63
2022-09-12T12:19:10.881Z,50.91
2022-09-12T12:21:42.648Z,50.11
2022-09-12T12:24:10.117Z,50.52
2022-09-12T12:26:40.422Z,49.57
2022-09-12T12:29:43.883Z,51.05
2022-09-12T12:32:12.276Z,48.21
2022-09-12T12:34:46.924Z,48.16
2022-09-12T12:37:20.972Z,48.94
2022-09-12T12:39:48.442Z,48.72
2022-09-12T12:42:57.007Z,47.69
2022-09-12T12:45:26.955Z,48.40
2022-09-12T12:48:15.362Z,49.29
2022-09-12T12:50:44.392Z,49.49
2022-09-12T12:53:27.672Z,49.92
2022-09-12T12:55:56.450Z,48.73
2022-09-12T12:58:34.609Z,47.55
2022-09-12T13:01:11.296Z,48.80
2022-09-12T13:03:42.923Z,48.48
2022-09-12T13:06:25.269Z,47.67
2022-09-12T13:09:00.172Z,48.63
2022-09-12T13:11:30.781Z,47.95
2022-09-12T13:14:01.409Z,47.38
2022-09-12T13:16:53.320Z,47.42
2022-09-12T13:19:32.465Z,46.48
2022-09-12T13:22:01.487Z,47.24
2022-09-12T13:24:29.131Z,44.81
2022-09-12T13:26:57.835Z,46.16
2022-09-12T13:29:27.448Z,45.94
2022-09-12T13:31:59.994Z,45.50
2022-09-12T13:34:30.015Z,42.12
2022-09-12T13:37:06.296Z,42.03
2022-09-12T13:39:52.361Z,43.28
2022-09-12T13:42:39.231Z,42.13
2022-09-12T13:45:13.682Z,40.63
2022-09-12T13:47:46.022Z,42.17
2022-09-12T13:50:20.489Z,43.40
2022-09-12T13:52:54.131Z,43.12
2022-09-12T13:55:41.592Z,42.04
2022-09-12T13:58:22.891Z,41.57
2022-09-12T14:01:08.036Z,41.83
2022-09-12T14:03:59.556Z,40.09
2022-09-12T14:06:27.745Z,40.12
2022-09-12T14:09:00.845Z,40.69
2022-09-12T14:11:31.156Z,41.55
2022-09-12T14:14:07.027Z,40.02
2022-09-12T14:16:39.102Z,40.82
2022-09-12T14:19:06.725Z,41.23
2022-09-12T14:21:36.492Z,42.06
2022-09-12T14:24:05.693Z,40.25
2022-09-12T14:26:37.626Z,40.91
2022-09-12T14:29:06.118Z,40.86
2022-09-12T14:31:38.487Z,40.74
2022-09-12T14:34:19.518Z,41.14
2022-09-12T14:36:52.293Z,39.37
2022-09-12T14:39:38.025Z,38.28
2022-09-12T14:42:16.808Z,38.91
2022-09-12T14:44:56.339Z,39.25
2022-09-12T14:47:27.907Z,38.94
2022-09-12T14:49:55.286Z,38.75
2022-09-12T14:52:30.508Z,39.81
2022-09-12T14:55:00.688Z,39.10
2022-09-12T14:57:27.910Z,39.43
2022-09-12T15:00:14.688Z,40.04
2022-09-12T15:02:43.415Z,38.94
2022-09-12T15:05:13.528Z,40.34
2022-09-12T15:07:53.666Z,40.03
2022-09-12T15:10:31.343Z,39.92
2022-09-12T15:13:11.943Z,38.92
2022-09-12T15:15:41.394Z,39.96
2022-09-12T15:18:16.156Z,39.04
2022-09-12T15:20:51.031Z,40.94
2022-09-12T15:23:30.328Z,40.49
2022-09-12T15:25:57.926Z,40.87
2022-09-12T15:28:26.861Z,40.61
2022-09-12T15:31:01.922Z,41.30
2022-09-12T15:33:29.670Z,41.33
2022-09-12T15:36:06.279Z,41.32
2022-09-12T15:38:33.854Z,41.73
2022-09-12T15:41:01.285Z,41.25
2022-09-12T15:43:28.634Z,40.85
2022-09-12T15:45:56.394Z,40.93
2022-09-12T15:48:23.974Z,40.00
2022-09-12T15:50:53.074Z,39.41
2022-09-12T15:53:20.715Z,39.58
2022-09-12T15:56:02.161Z,39.72
2022-09-12T15:58:33.642Z,39.25
2022-09-12T16:01:07.450Z,40.10
2022-09-12T16:03:36.003Z,39.78
2022-09-12T16:06:07.301Z,39.58
2022-09-12T16:08:36.289Z,41.09
2022-09-12T16:11:19.121Z,40.38
2022-09-12T16:13:46.730Z,39.74
2022-09-12T16:16:14.119Z,40.59
2022-09-12T16:18:41.703Z,40.58
2022-09-12T16:21:14.894Z,39.70
2022-09-12T16:23:44.015Z,39.30
2022-09-12T16:26:11.660Z,40.13
2022-09-12T16:28:39.243Z,40.18
2022-09-12T16:31:07.875Z,41.31
2022-09-12T16:33:36.884Z,40.15
2022-09-12T16:36:14.990Z,39.51
2022-09-12T16:38:51.165Z,41.43
2022-09-12T16:41:21.170Z,40.80
2022-09-12T16:43:48.840Z,41.21
2022-09-12T16:46:18.917Z,40.62
2022-09-12T16:48:52.715Z,39.87
2022-09-12T16:51:47.431Z,41.27
2022-09-12T16:54:15.735Z,41.72
2022-09-12T16:56:44.064Z,40.91
2022-09-12T16:59:14.183Z,40.50
2022-09-12T17:01:42.038Z,40.42
2022-09-12T17:04:10.135Z,40.34
2022-09-12T17:06:37.564Z,39.87
2022-09-12T17:09:05.413Z,40.34
2022-09-12T17:11:36.464Z,40.00
2022-09-12T17:14:06.948Z,41.12
2022-09-12T17:16:36.748Z,40.78
2022-09-12T17:19:05.184Z,40.86
2022-09-12T17:21:33.086Z,41.35
2022-09-12T17:24:00.767Z,41.18
2022-09-12T17:26:28.106Z,41.05
2022-09-12T17:28:55.451Z,41.85
2022-09-12T17:31:23.122Z,41.85
2022-09-12T17:33:50.476Z,41.40
2022-09-12T17:36:18.226Z,42.94
2022-09-12T17:38:46.554Z,43.05
2022-09-12T17:41:17.984Z,43.79
2022-09-12T17:43:50.943Z,43.05
2022-09-12T17:46:19.574Z,44.42
2022-09-12T17:48:55.147Z,44.58
2022-09-12T17:51:25.075Z,44.91
2022-09-12T17:54:01.244Z,44.38
2022-09-12T17:56:30.961Z,45.08
2022-09-12T17:58:59.515Z,46.04
2022-09-12T18:01:46.314Z,46.64
2022-09-12T18:04:14.903Z,45.30
2022-09-12T18:06:48.190Z,45.43
2022-09-12T18:09:18.994Z,45.26
2022-09-12T18:11:48.533Z,45.22
2022-09-12T18:14:17.254Z,45.58
2022-09-12T18:16:45.971Z,45.08
2022-09-12T18:19:13.721Z,45.13
2022-09-12T18:21:41.641Z,44.44
2022-09-12T18:24:10.523Z,45.40
2022-09-12T18:26:38.306Z,45.52
2022-09-12T18:29:06.864Z,45.58
2022-09-12T18:31:34.546Z,45.20
2022-09-12T18:34:02.639Z,47.16
2022-09-12T18:36:31.061Z,47.95
2022-09-12T18:38:59.587Z,47.84
2022-09-12T18:41:29.217Z,48.32
2022-09-12T18:43:59.436Z,48.43
2022-09-12T18:46:28.777Z,48.11
2022-09-12T18:48:58.752Z,46.55
2022-09-12T18:51:31.832Z,47.25
2022-09-12T18:54:03.166Z,46.27
2022-09-12T18:56:36.178Z,46.57
2022-09-12T18:59:05.803Z,46.47
2022-09-12T19:01:38.966Z,46.89
2022-09-12T19:04:08.221Z,48.54
2022-09-12T19:06:41.683Z,48.42
2022-09-12T19:09:10.813Z,48.37
2022-09-12T19:11:40.261Z,48.19
2022-09-12T19:14:07.728Z,48.65
2022-09-12T19:16:36.009Z,48.46
2022-09-12T19:19:04.131Z,48.98
2022-09-12T19:21:33.492Z,48.90
2022-09-12T19:24:06.945Z,48.88
2022-09-12T19:26:35.029Z,48.58
2022-09-12T19:29:03.240Z,49.08
2022-09-12T19:31:32.720Z,50.57
2022-09-12T19:34:02.215Z,50.58
2022-09-12T19:36:46.982Z,51.78
2022-09-12T19:39:17.611Z,53.24
2022-09-12T19:41:45.845Z,54.01
2022-09-12T19:44:13.583Z,53.71
2022-09-12T19:46:42.562Z,53.38
2022-09-12T19:49:11.770Z,53.16
2022-09-12T19:51:39.127Z,52.66
2022-09-12T19:54:07.909Z,52.90
2022-09-12T19:56:35.346Z,53.79
2022-09-12T19:59:02.878Z,53.25
2022-09-12T20:01:30.593Z,53.65
2022-09-12T20:03:59.163Z,53.13
2022-09-12T20:06:27.474Z,53.86
2022-09-12T20:08:55.645Z,53.20
2022-09-12T20:11:24.401Z,54.15
2022-09-12T20:13:52.286Z,53.55
2022-09-12T20:16:22.792Z,53.47
2022-09-12T20:18:55.882Z,53.12
2022-09-12T20:21:25.477Z,53.33
2022-09-12T20:23:53.271Z,54.06
2022-09-12T20:26:20.751Z,54.74
2022-09-12T20:28:48.585Z,54.51
2022-09-12T20:31:16.828Z,54.90
2022-09-12T20:33:47.541Z,55.13
2022-09-12T20:36:19.360Z,55.18
2022-09-12T20:38:49.416Z,56.31
2022-09-12T20:41:18.404Z,55.24
2022-09-12T20:43:49.046Z,55.36
2022-09-12T20:46:20.947Z,54.95
2022-09-12T20:48:50.142Z,54.69
2022-09-12T20:51:18.922Z,54.28
2022-09-12T20:53:46.777Z,54.58
2022-09-12T20:56:15.021Z,55.16
2022-09-12T20:58:44.256Z,55.42
2022-09-12T21:01:13.692Z,55.01
2022-09-12T21:03:42.120Z,54.46
2022-09-12T21:06:10.831Z,54.61
2022-09-12T21:08:38.713Z,54.80
2022-09-12T21:11:06.677Z,55.47
2022-09-12T21:13:34.736Z,55.96
2022-09-12T21:16:07.211Z,55.73
2022-09-12T21:18:35.456Z,56.10
2022-09-12T21:21:04.339Z,55.57
2022-09-12T21:23:32.072Z,55.64
2022-09-12T21:25:59.923Z,55.74
2022-09-12T21:28:27.773Z,56.02
2022-09-12T21:30:55.936Z,56.80
2022-09-12T21:33:23.630Z,56.74
2022-09-12T21:35:51.255Z,57.01
2022-09-12T21:38:19.681Z,56.89
2022-09-12T21:40:47.816Z,56.41
2022-09-12T21:43:15.353Z,56.00
2022-09-12T21:45:42.691Z,56.23
2022-09-12T21:48:10.554Z,56.31
2022-09-12T21:50:37.912Z,56.22
2022-09-12T21:53:05.226Z,56.60
2022-09-12T21:55:33.058Z,56.72
2022-09-12T21:58:00.392Z,57.20
2022-09-12T22:00:27.822Z,56.57
2022-09-12T22:02:55.746Z,57.21
2022-09-12T22:05:24.597Z,58.87
2022-09-12T22:07:52.536Z,56.38
2022-09-12T22:10:20.109Z,56.48
2022-09-12T22:12:47.422Z,56.53
2022-09-12T22:15:39.525Z,56.11
2022-09-12T22:18:02.442Z,56.99
2022-09-12T22:20:29.743Z,56.41
2022-09-12T22:23:15.616Z,56.60
2022-09-12T22:25:43.228Z,56.76
2022-09-12T22:28:10.750Z,57.43
2022-09-12T22:30:38.655Z,56.54
2022-09-12T22:33:06.293Z,56.00
2022-09-12T22:35:33.649Z,57.17
2022-09-12T22:38:00.995Z,58.22
2022-09-12T22:40:28.556Z,58.41
2022-09-12T22:42:55.869Z,59.80
2022-09-12T22:45:23.175Z,62.43
2022-09-12T22:47:50.754Z,61.71
2022-09-12T22:50:18.098Z,59.69
2022-09-12T22:52:45.405Z,58.44
2022-09-12T22:55:13.138Z,57.80
2022-09-12T22:57:40.553Z,58.20
2022-09-12T23:00:10.572Z,58.54
2022-09-12T23:02:38.219Z,60.14
2022-09-12T23:05:06.175Z,60.81
2022-09-12T23:07:33.575Z,60.93
2022-09-12T23:10:01.187Z,62.18
2022-09-12T23:12:28.533Z,60.50
2022-09-12T23:14:55.864Z,58.74
2022-09-12T23:17:23.494Z,59.45
2022-09-12T23:19:50.803Z,59.57
2022-09-12T23:22:18.262Z,61.80
2022-09-12T23:24:45.922Z,61.67
2022-09-12T23:27:13.325Z,62.52
2022-09-12T23:29:40.632Z,62.23
2022-09-12T23:32:08.247Z,61.04
2022-09-12T23:34:35.665Z,62.26
2022-09-12T23:37:03.267Z,60.11
2022-09-12T23:39:31.809Z,61.20
2022-09-12T23:41:59.250Z,61.03
2022-09-12T23:44:26.560Z,60.52
2022-09-12T23:46:54.152Z,61.60
2022-09-12T23:49:22.246Z,62.15
2022-09-12T23:51:49.563Z,63.51
2022-09-12T23:54:17.139Z,61.50
2022-09-12T23:56:44.528Z,61.76
2022-09-12T23:59:11.843Z,62.42
